createdAt,value
2023-05-01T00:00:47.085Z,211.92
2023-05-01T00:01:47.081Z,212.97
2023-05-01T00:02:47.194Z,213.29
2023-05-01T00:03:47.332Z,212.84
2023-05-01T00:04:47.208Z,215.06
2023-05-01T00:05:47.124Z,211.05
2023-05-01T00:06:47.275Z,211.63
2023-05-01T00:07:47.134Z,214.30
2023-05-01T00:08:47.146Z,212.87
2023-05-01T00:09:47.157Z,212.33
2023-05-01T00:10:47.164Z,213.56
2023-05-01T00:11:47.187Z,213.04
2023-05-01T00:12:47.198Z,213.47
2023-05-01T00:13:47.240Z,211.61
2023-05-01T00:14:47.205Z,215.70
2023-05-01T00:15:47.225Z,213.84
2023-05-01T00:16:47.270Z,213.37
2023-05-01T00:17:47.268Z,212.73
2023-05-01T00:18:47.237Z,212.81
2023-05-01T00:19:47.243Z,211.66
2023-05-01T00:20:47.261Z,213.10
2023-05-01T00:21:47.257Z,212.70
2023-05-01T00:22:47.276Z,211.75
2023-05-01T00:23:47.300Z,212.45
2023-05-01T00:24:47.297Z,213.71
2023-05-01T00:25:47.329Z,212.43
2023-05-01T00:26:47.319Z,215.52
2023-05-01T00:27:47.308Z,213.20
2023-05-01T00:28:47.336Z,211.33
2023-05-01T00:29:47.331Z,212.37
2023-05-01T00:30:47.363Z,211.34
2023-05-01T00:31:47.416Z,210.31
2023-05-01T00:32:47.375Z,210.53
2023-05-01T00:33:47.302Z,210.87
2023-05-01T00:34:47.295Z,210.99
2023-05-01T00:35:47.265Z,212.97
2023-05-01T00:36:48.639Z,213.83
2023-05-01T00:37:47.236Z,210.57
2023-05-01T00:38:47.198Z,211.11
2023-05-01T00:39:47.231Z,211.40
2023-05-01T00:40:47.226Z,212.10
2023-05-01T00:41:47.205Z,213.69
2023-05-01T00:42:47.133Z,211.82
2023-05-01T00:43:47.155Z,210.99
2023-05-01T00:44:47.094Z,212.27
2023-05-01T00:45:47.172Z,210.80
2023-05-01T00:46:47.075Z,210.55
2023-05-01T00:47:47.082Z,211.81
2023-05-01T00:48:47.041Z,211.59
2023-05-01T00:49:47.045Z,213.07
2023-05-01T00:50:47.023Z,210.01
2023-05-01T00:51:47.004Z,210.95
2023-05-01T00:52:46.988Z,211.98
2023-05-01T00:53:46.985Z,211.66
2023-05-01T00:54:46.973Z,212.26
2023-05-01T00:55:46.969Z,213.42
2023-05-01T00:56:46.941Z,212.06
2023-05-01T00:57:46.932Z,211.30
2023-05-01T00:58:46.894Z,212.54
2023-05-01T00:59:46.880Z,210.76
2023-05-01T01:00:46.879Z,210.65
2023-05-01T01:01:47.059Z,211.66
2023-05-01T01:02:46.914Z,211.74
2023-05-01T01:03:46.932Z,210.86
2023-05-01T01:04:47.014Z,210.51
2023-05-01T01:05:46.929Z,210.40
2023-05-01T01:06:47.048Z,211.80
2023-05-01T01:07:46.943Z,211.17
2023-05-01T01:08:46.966Z,211.71
2023-05-01T01:09:46.973Z,212.01
2023-05-01T01:10:46.998Z,210.40
2023-05-01T01:11:46.981Z,210.44
2023-05-01T01:12:47.012Z,211.09
2023-05-01T01:13:47.041Z,211.84
2023-05-01T01:14:47.024Z,212.79
2023-05-01T01:15:47.026Z,210.25
2023-05-01T01:16:47.192Z,212.42
2023-05-01T01:17:47.177Z,212.75
2023-05-01T01:18:47.071Z,210.24
2023-05-01T01:19:47.062Z,210.94
2023-05-01T01:20:47.092Z,209.70
2023-05-01T01:21:47.086Z,209.14
2023-05-01T01:22:47.096Z,210.48
2023-05-01T01:23:47.098Z,208.35
2023-05-01T01:24:47.124Z,211.17
2023-05-01T01:25:47.122Z,211.52
2023-05-01T01:26:47.138Z,209.62
2023-05-01T01:27:47.138Z,211.45
2023-05-01T01:28:47.162Z,208.73
2023-05-01T01:29:47.171Z,210.88
2023-05-01T01:30:47.214Z,209.60
2023-05-01T01:31:47.181Z,213.42
2023-05-01T01:32:47.239Z,209.44
2023-05-01T01:33:47.158Z,209.67
2023-05-01T01:34:47.145Z,209.88
2023-05-01T01:35:47.142Z,209.54
2023-05-01T01:36:47.101Z,210.21
2023-05-01T01:37:47.091Z,210.74
2023-05-01T01:38:47.059Z,210.47
2023-05-01T01:39:47.065Z,210.60
2023-05-01T01:40:47.034Z,211.97
2023-05-01T01:41:46.999Z,210.39
2023-05-01T01:42:46.981Z,209.76
2023-05-01T01:43:46.981Z,211.67
2023-05-01T01:44:46.941Z,211.46
2023-05-01T01:45:46.963Z,209.46
2023-05-01T01:46:47.016Z,210.25
2023-05-01T01:47:46.899Z,210.61
2023-05-01T01:48:46.863Z,210.27
2023-05-01T01:49:46.839Z,209.80
2023-05-01T01:50:46.832Z,211.25
2023-05-01T01:51:46.801Z,210.80
2023-05-01T01:52:46.788Z,210.02
2023-05-01T01:53:46.818Z,209.80
2023-05-01T01:54:46.811Z,210.53
2023-05-01T01:55:46.858Z,208.39
2023-05-01T01:56:46.857Z,210.70
2023-05-01T01:57:46.872Z,208.05
2023-05-01T01:58:46.869Z,211.88
2023-05-01T01:59:46.899Z,209.65
2023-05-01T02:00:46.939Z,210.10
2023-05-01T02:01:46.979Z,208.72
2023-05-01T02:02:47.076Z,210.46
2023-05-01T02:03:47.107Z,209.13
2023-05-01T02:04:46.990Z,204.83
2023-05-01T02:05:47.006Z,208.97
2023-05-01T02:06:47.077Z,209.19
2023-05-01T02:07:47.035Z,209.04
2023-05-01T02:08:47.063Z,209.18
2023-05-01T02:09:47.085Z,209.48
2023-05-01T02:10:47.107Z,208.89
2023-05-01T02:11:47.121Z,207.98
2023-05-01T02:12:47.136Z,208.82
2023-05-01T02:13:47.155Z,208.92
2023-05-01T02:14:47.159Z,210.62
2023-05-01T02:15:47.241Z,210.16
2023-05-01T02:16:47.201Z,208.61
2023-05-01T02:17:47.361Z,209.80
2023-05-01T02:18:47.271Z,209.19
2023-05-01T02:19:47.251Z,205.50
2023-05-01T02:20:47.277Z,209.62
2023-05-01T02:21:47.296Z,209.33
2023-05-01T02:22:47.295Z,208.81
2023-05-01T02:23:47.314Z,206.97
2023-05-01T02:24:47.319Z,209.56
2023-05-01T02:25:47.334Z,208.43
2023-05-01T02:26:47.343Z,209.02
2023-05-01T02:27:47.371Z,208.42
2023-05-01T02:28:47.383Z,205.59
2023-05-01T02:29:47.412Z,207.97
2023-05-01T02:30:47.439Z,208.04
2023-05-01T02:31:47.465Z,208.87
2023-05-01T02:32:47.509Z,206.96
2023-05-01T02:33:47.461Z,208.77
2023-05-01T02:34:47.468Z,208.55
2023-05-01T02:35:47.501Z,206.12
2023-05-01T02:36:47.492Z,208.37
2023-05-01T02:37:47.504Z,209.21
2023-05-01T02:38:47.521Z,208.29
2023-05-01T02:39:47.531Z,207.39
2023-05-01T02:40:47.557Z,208.44
2023-05-01T02:41:47.591Z,208.96
2023-05-01T02:42:47.603Z,205.71
2023-05-01T02:43:47.604Z,208.72
2023-05-01T02:44:47.611Z,205.38
2023-05-01T02:45:47.697Z,186.77
2023-05-01T02:46:47.633Z,157.52
2023-05-01T02:47:47.686Z,155.64
2023-05-01T02:48:47.644Z,134.10
2023-05-01T02:49:47.657Z,105.52
2023-05-01T02:50:47.667Z,81.22
2023-05-01T02:51:47.678Z,60.59
2023-05-01T02:52:47.668Z,47.48
2023-05-01T02:53:47.684Z,25.81
2023-05-01T02:54:47.688Z,25.00
2023-05-01T02:55:47.695Z,24.71
2023-05-01T02:56:47.717Z,23.59
2023-05-01T02:57:47.734Z,25.00
2023-05-01T02:58:47.738Z,24.27
2023-05-01T02:59:47.768Z,24.96
2023-05-01T03:00:47.883Z,25.00
2023-05-01T03:01:47.887Z,24.24
2023-05-01T03:02:47.917Z,25.00
2023-05-01T03:03:47.928Z,25.38
2023-05-01T03:04:47.907Z,25.09
2023-05-01T03:05:48.099Z,25.51
2023-05-01T03:06:48.074Z,25.58
2023-05-01T03:07:47.977Z,25.81
2023-05-01T03:08:48.036Z,25.00
2023-05-01T03:09:48.048Z,25.90
2023-05-01T03:10:48.120Z,26.70
2023-05-01T03:11:48.129Z,25.00
2023-05-01T03:12:48.189Z,25.81
2023-05-01T03:13:48.219Z,25.22
2023-05-01T03:14:48.276Z,25.00
2023-05-01T03:15:48.322Z,25.00
2023-05-01T03:16:48.460Z,25.00
2023-05-01T03:17:48.463Z,26.35
2023-05-01T03:18:48.455Z,25.95
2023-05-01T03:19:48.546Z,26.06
2023-05-01T03:20:48.565Z,27.44
2023-05-01T03:21:48.636Z,25.16
2023-05-01T03:22:48.750Z,25.62
2023-05-01T03:23:48.842Z,26.17
2023-05-01T03:24:48.837Z,27.35
2023-05-01T03:25:48.835Z,26.20
2023-05-01T03:26:48.932Z,25.00
2023-05-01T03:27:48.953Z,25.12
2023-05-01T03:28:48.993Z,24.69
2023-05-01T03:29:48.984Z,29.65
2023-05-01T03:30:48.999Z,28.02
2023-05-01T03:31:49.009Z,28.03
2023-05-01T03:32:49.007Z,28.28
2023-05-01T03:33:48.987Z,28.93
2023-05-01T03:34:48.926Z,30.75
2023-05-01T03:35:49.079Z,32.98
2023-05-01T03:36:48.905Z,34.53
2023-05-01T03:37:48.932Z,36.15
2023-05-01T03:38:48.906Z,36.70
2023-05-01T03:39:48.924Z,35.81
2023-05-01T03:40:48.943Z,37.56
2023-05-01T03:41:48.937Z,36.01
2023-05-01T03:42:48.895Z,35.66
2023-05-01T03:43:48.855Z,35.15
2023-05-01T03:44:48.819Z,34.30
2023-05-01T03:45:48.845Z,34.35
2023-05-01T03:46:48.804Z,34.50
2023-05-01T03:47:48.855Z,34.16
2023-05-01T03:48:48.803Z,33.56
2023-05-01T03:49:48.797Z,32.69
2023-05-01T03:50:48.802Z,34.89
2023-05-01T03:51:48.832Z,33.36
2023-05-01T03:52:48.818Z,33.36
2023-05-01T03:53:48.781Z,33.17
2023-05-01T03:54:48.778Z,35.23
2023-05-01T03:55:48.778Z,34.08
2023-05-01T03:56:48.780Z,35.10
2023-05-01T03:57:48.767Z,35.17
2023-05-01T03:58:48.768Z,35.19
2023-05-01T03:59:48.742Z,35.54
2023-05-01T04:00:48.741Z,35.70
2023-05-01T04:01:48.733Z,36.75
2023-05-01T04:02:48.930Z,36.00
2023-05-01T04:03:48.837Z,39.43
2023-05-01T04:04:48.710Z,36.55
2023-05-01T04:05:48.716Z,36.50
2023-05-01T04:06:48.797Z,38.48
2023-05-01T04:07:48.705Z,38.65
2023-05-01T04:08:48.696Z,36.24
2023-05-01T04:09:48.673Z,38.19
2023-05-01T04:10:48.696Z,40.68
2023-05-01T04:11:48.662Z,39.25
2023-05-01T04:12:48.655Z,41.08
2023-05-01T04:13:48.678Z,41.77
2023-05-01T04:14:48.655Z,42.73
2023-05-01T04:15:48.719Z,42.02
2023-05-01T04:16:48.648Z,40.47
2023-05-01T04:17:48.721Z,41.74
2023-05-01T04:18:48.664Z,41.65
2023-05-01T04:19:48.648Z,42.67
2023-05-01T04:20:48.617Z,43.52
2023-05-01T04:21:48.617Z,44.90
2023-05-01T04:22:48.644Z,44.95
2023-05-01T04:23:48.590Z,45.04
2023-05-01T04:24:48.597Z,45.52
2023-05-01T04:25:48.586Z,46.37
2023-05-01T04:26:48.584Z,46.97
2023-05-01T04:27:48.577Z,48.11
2023-05-01T04:28:48.580Z,46.42
2023-05-01T04:29:48.598Z,46.77
2023-05-01T04:30:48.577Z,45.38
2023-05-01T04:31:48.648Z,45.45
2023-05-01T04:32:48.610Z,47.57
2023-05-01T04:33:48.565Z,47.67
2023-05-01T04:34:48.557Z,47.92
2023-05-01T04:35:48.535Z,47.90
2023-05-01T04:36:48.529Z,47.51
2023-05-01T04:37:48.536Z,47.58
2023-05-01T04:38:48.540Z,47.56
2023-05-01T04:39:48.521Z,46.74
2023-05-01T04:40:48.532Z,48.24
2023-05-01T04:41:48.541Z,48.23
2023-05-01T04:42:48.510Z,48.68
2023-05-01T04:43:48.513Z,50.56
2023-05-01T04:44:48.540Z,50.66
2023-05-01T04:45:48.488Z,52.71
2023-05-01T04:46:48.529Z,52.30
2023-05-01T04:47:48.523Z,54.31
2023-05-01T04:48:48.474Z,52.68
2023-05-01T04:49:48.460Z,52.80
2023-05-01T04:50:48.460Z,52.03
2023-05-01T04:51:48.461Z,53.44
2023-05-01T04:52:48.470Z,52.56
2023-05-01T04:53:48.463Z,51.64
2023-05-01T04:54:48.469Z,53.94
2023-05-01T04:55:48.454Z,52.43
2023-05-01T04:56:48.457Z,52.06
2023-05-01T04:57:48.436Z,51.99
2023-05-01T04:58:48.435Z,51.72
2023-05-01T04:59:48.480Z,50.70
2023-05-01T05:00:48.484Z,49.01
2023-05-01T05:01:48.556Z,50.52
2023-05-01T05:02:48.610Z,50.12
2023-05-01T05:03:50.200Z,49.35
2023-05-01T05:04:48.554Z,47.08
2023-05-01T05:05:48.559Z,49.66
2023-05-01T05:06:48.753Z,48.60
2023-05-01T05:07:48.574Z,49.12
2023-05-01T05:08:48.543Z,51.15
2023-05-01T05:09:48.549Z,50.42
2023-05-01T05:10:48.561Z,47.04
2023-05-01T05:11:48.572Z,47.16
2023-05-01T05:12:48.559Z,46.67
2023-05-01T05:13:48.576Z,50.75
2023-05-01T05:14:48.554Z,49.33
2023-05-01T05:15:48.545Z,46.47
2023-05-01T05:16:48.658Z,49.93
2023-05-01T05:17:48.610Z,50.64
2023-05-01T05:18:48.570Z,50.81
2023-05-01T05:19:48.549Z,51.69
2023-05-01T05:20:48.587Z,50.47
2023-05-01T05:21:48.573Z,50.53
2023-05-01T05:22:48.557Z,50.59
2023-05-01T05:23:48.568Z,50.60
2023-05-01T05:24:48.565Z,51.25
2023-05-01T05:25:48.565Z,48.81
2023-05-01T05:26:48.578Z,51.06
2023-05-01T05:27:48.564Z,51.59
2023-05-01T05:28:48.597Z,50.13
2023-05-01T05:29:48.571Z,51.63
2023-05-01T05:30:48.571Z,52.52
2023-05-01T05:31:48.664Z,50.44
2023-05-01T05:32:48.590Z,48.49
2023-05-01T05:33:48.590Z,50.20
2023-05-01T05:34:48.569Z,49.77
2023-05-01T05:35:48.572Z,51.11
2023-05-01T05:36:48.579Z,51.50
2023-05-01T05:37:48.611Z,49.10
2023-05-01T05:38:48.655Z,47.87
2023-05-01T05:39:48.679Z,50.91
2023-05-01T05:40:48.733Z,49.92
2023-05-01T05:41:48.781Z,51.03
2023-05-01T05:42:48.820Z,50.74
2023-05-01T05:43:48.855Z,51.07
2023-05-01T05:44:48.901Z,47.81
2023-05-01T05:45:48.972Z,49.14
2023-05-01T05:46:48.986Z,51.46
2023-05-01T05:47:49.060Z,48.74
2023-05-01T05:48:49.071Z,46.32
2023-05-01T05:49:49.115Z,49.34
2023-05-01T05:50:49.149Z,50.85
2023-05-01T05:51:49.191Z,49.28
2023-05-01T05:52:49.241Z,48.06
2023-05-01T05:53:49.272Z,47.85
2023-05-01T05:54:49.298Z,50.12
2023-05-01T05:55:49.349Z,53.08
2023-05-01T05:56:49.395Z,50.80
2023-05-01T05:57:49.401Z,48.37
2023-05-01T05:58:49.452Z,49.93
2023-05-01T05:59:49.473Z,53.57
2023-05-01T06:00:49.522Z,52.38
2023-05-01T06:01:49.597Z,51.90
2023-05-01T06:02:49.720Z,51.55
2023-05-01T06:03:49.728Z,51.31
2023-05-01T06:04:49.828Z,50.86
2023-05-01T06:05:49.748Z,49.58
2023-05-01T06:06:49.815Z,49.66
2023-05-01T06:07:49.823Z,50.45
2023-05-01T06:08:49.853Z,50.69
2023-05-01T06:09:49.893Z,51.11
2023-05-01T06:10:49.954Z,49.56
2023-05-01T06:11:50.065Z,49.50
2023-05-01T06:12:55.064Z,48.37
2023-05-01T06:13:51.000Z,48.39
2023-05-01T06:14:50.061Z,48.49
2023-05-01T06:15:50.155Z,47.19
2023-05-01T06:16:50.089Z,47.36
2023-05-01T06:17:50.130Z,49.52
2023-05-01T06:18:50.049Z,49.52
2023-05-01T06:19:50.110Z,48.92
2023-05-01T06:20:50.018Z,47.65
2023-05-01T06:21:50.140Z,45.79
2023-05-01T06:22:50.008Z,49.18
2023-05-01T06:23:49.982Z,46.79
2023-05-01T06:24:49.989Z,47.58
2023-05-01T06:25:49.997Z,47.42
2023-05-01T06:26:50.004Z,47.70
2023-05-01T06:27:50.016Z,49.50
2023-05-01T06:28:50.060Z,49.23
2023-05-01T06:29:50.142Z,48.84
2023-05-01T06:30:50.164Z,48.92
2023-05-01T06:31:50.378Z,50.73
2023-05-01T06:32:50.362Z,51.04
2023-05-01T06:33:50.246Z,51.75
2023-05-01T06:34:50.316Z,51.93
2023-05-01T06:35:50.332Z,51.03
2023-05-01T06:36:50.370Z,49.29
2023-05-01T06:37:50.409Z,50.10
2023-05-01T06:38:50.442Z,50.64
2023-05-01T06:39:50.503Z,51.54
2023-05-01T06:40:50.511Z,51.86
2023-05-01T06:41:50.548Z,51.93
2023-05-01T06:42:50.610Z,52.23
2023-05-01T06:43:50.618Z,51.14
2023-05-01T06:44:50.627Z,53.46
2023-05-01T06:45:50.693Z,52.27
2023-05-01T06:46:50.769Z,54.98
2023-05-01T06:47:50.849Z,54.58
2023-05-01T06:48:50.799Z,56.38
2023-05-01T06:49:50.816Z,57.19
2023-05-01T06:50:50.868Z,57.38
2023-05-01T06:51:50.919Z,59.45
2023-05-01T06:52:50.941Z,58.22
2023-05-01T06:53:50.976Z,58.40
2023-05-01T06:54:51.014Z,58.59
2023-05-01T06:55:51.058Z,58.83
2023-05-01T06:56:51.099Z,59.79
2023-05-01T06:57:51.088Z,59.83
2023-05-01T06:58:51.088Z,59.97
2023-05-01T06:59:51.083Z,60.33
2023-05-01T07:00:51.125Z,58.73
2023-05-01T07:01:51.087Z,57.98
2023-05-01T07:02:51.174Z,60.01
2023-05-01T07:03:51.076Z,62.23
2023-05-01T07:04:51.071Z,59.98
2023-05-01T07:05:51.044Z,57.69
2023-05-01T07:06:51.133Z,61.27
2023-05-01T07:08:00.832Z,60.85
2023-05-01T07:08:52.042Z,60.92
2023-05-01T07:09:51.038Z,60.94
2023-05-01T07:10:51.031Z,60.35
2023-05-01T07:11:51.000Z,61.43
2023-05-01T07:12:51.027Z,63.98
2023-05-01T07:13:51.023Z,58.44
2023-05-01T07:14:50.991Z,57.21
2023-05-01T07:15:53.879Z,57.98
2023-05-01T07:16:51.099Z,58.05
2023-05-01T07:17:51.029Z,58.35
2023-05-01T07:18:51.009Z,58.12
2023-05-01T07:19:50.965Z,58.59
2023-05-01T07:20:50.957Z,59.60
2023-05-01T07:21:50.967Z,60.91
2023-05-01T07:22:51.018Z,60.73
2023-05-01T07:23:50.941Z,61.04
2023-05-01T07:24:50.972Z,63.05
2023-05-01T07:25:50.955Z,57.87
2023-05-01T07:26:50.979Z,57.03
2023-05-01T07:27:50.994Z,56.54
2023-05-01T07:28:50.964Z,58.76
2023-05-01T07:29:50.971Z,59.63
2023-05-01T07:30:50.929Z,59.16
2023-05-01T07:31:50.956Z,57.36
2023-05-01T07:32:50.956Z,56.67
2023-05-01T07:33:51.220Z,55.99
2023-05-01T07:34:50.913Z,57.33
2023-05-01T07:35:50.894Z,58.22
2023-05-01T07:36:50.901Z,56.54
2023-05-01T07:37:50.928Z,58.35
2023-05-01T07:38:50.952Z,58.32
2023-05-01T07:39:50.876Z,58.61
2023-05-01T07:40:50.858Z,60.16
2023-05-01T07:41:50.863Z,59.07
2023-05-01T07:42:53.129Z,62.37
2023-05-01T07:43:50.843Z,65.17
2023-05-01T07:44:50.847Z,63.89
2023-05-01T07:45:50.851Z,63.34
2023-05-01T07:46:50.819Z,63.62
2023-05-01T07:47:50.855Z,63.67
2023-05-01T07:48:50.805Z,62.79
2023-05-01T07:49:50.796Z,60.14
2023-05-01T07:50:50.829Z,54.19
2023-05-01T07:51:50.794Z,49.34
2023-05-01T07:52:50.796Z,49.02
2023-05-01T07:53:50.828Z,47.44
2023-05-01T07:54:50.785Z,44.57
2023-05-01T07:55:50.775Z,47.90
2023-05-01T07:56:50.857Z,46.86
2023-05-01T07:57:50.758Z,42.82
2023-05-01T07:58:50.909Z,43.05
2023-05-01T07:59:50.740Z,42.93
2023-05-01T08:00:50.746Z,42.32
2023-05-01T08:01:50.760Z,37.46
2023-05-01T08:02:50.807Z,40.70
2023-05-01T08:03:51.193Z,41.42
2023-05-01T08:04:50.824Z,38.88
2023-05-01T08:05:50.739Z,34.38
2023-05-01T08:06:50.770Z,30.85
2023-05-01T08:07:50.719Z,25.25
2023-05-01T08:08:50.717Z,27.07
2023-05-01T08:09:50.696Z,26.26
2023-05-01T08:10:50.706Z,25.00
2023-05-01T08:11:50.680Z,26.31
2023-05-01T08:12:50.704Z,25.93
2023-05-01T08:13:50.701Z,27.12
2023-05-01T08:14:50.773Z,29.45
2023-05-01T08:15:50.786Z,26.36
2023-05-01T08:16:50.779Z,25.99
2023-05-01T08:17:50.838Z,26.06
2023-05-01T08:18:50.838Z,25.22
2023-05-01T08:19:50.834Z,27.42
2023-05-01T08:20:50.892Z,25.00
2023-05-01T08:21:50.879Z,26.12
2023-05-01T08:22:50.909Z,27.63
2023-05-01T08:23:50.965Z,25.67
2023-05-01T08:24:50.934Z,24.84
2023-05-01T08:26:50.976Z,26.77
2023-05-01T08:27:51.004Z,25.34
2023-05-01T08:28:51.072Z,25.00
2023-05-01T08:29:51.054Z,25.59
2023-05-01T08:30:51.045Z,24.93
2023-05-01T08:31:51.148Z,25.08
2023-05-01T08:32:51.116Z,25.05
2023-05-01T08:33:51.079Z,26.84
2023-05-01T08:34:51.114Z,25.00
2023-05-01T08:35:51.115Z,26.63
2023-05-01T08:36:51.139Z,26.27
2023-05-01T08:37:51.157Z,30.06
2023-05-01T08:38:51.160Z,27.78
2023-05-01T08:39:51.222Z,30.46
2023-05-01T08:40:51.208Z,32.17
2023-05-01T08:41:51.246Z,32.88
2023-05-01T08:42:51.265Z,34.67
2023-05-01T08:43:51.261Z,29.18
2023-05-01T08:44:51.304Z,31.95
2023-05-01T08:45:51.308Z,26.96
2023-05-01T08:46:51.337Z,30.88
2023-05-01T08:47:51.444Z,32.66
2023-05-01T08:48:51.356Z,36.14
2023-05-01T08:49:51.382Z,41.85
2023-05-01T08:50:51.415Z,43.68
2023-05-01T08:51:51.440Z,54.23
2023-05-01T08:52:51.451Z,58.11
2023-05-01T08:53:51.472Z,65.61
2023-05-01T08:54:51.508Z,72.44
2023-05-01T08:55:51.501Z,77.73
2023-05-01T08:56:51.530Z,83.55
2023-05-01T08:57:51.533Z,87.51
2023-05-01T08:58:51.528Z,90.33
2023-05-01T08:59:51.536Z,96.92
2023-05-01T09:00:51.529Z,100.65
2023-05-01T09:01:51.650Z,105.05
2023-05-01T09:02:51.584Z,109.88
2023-05-01T09:03:51.577Z,113.70
2023-05-01T09:04:51.553Z,116.47
2023-05-01T09:05:51.563Z,119.93
2023-05-01T09:06:51.623Z,124.14
2023-05-01T09:07:51.549Z,128.82
2023-05-01T09:08:51.590Z,133.70
2023-05-01T09:09:51.552Z,137.47
2023-05-01T09:10:51.562Z,140.79
2023-05-01T09:11:51.591Z,145.02
2023-05-01T09:12:51.700Z,148.08
2023-05-01T09:13:51.664Z,151.84
2023-05-01T09:14:51.757Z,153.52
2023-05-01T09:15:51.818Z,157.73
2023-05-01T09:16:51.859Z,161.34
2023-05-01T09:17:51.933Z,163.95
2023-05-01T09:18:51.934Z,167.32
2023-05-01T09:19:52.033Z,170.07
2023-05-01T09:20:52.058Z,172.06
2023-05-01T09:21:52.108Z,175.39
2023-05-01T09:22:52.176Z,178.59
2023-05-01T09:23:52.232Z,180.03
2023-05-01T09:24:52.309Z,182.71
2023-05-01T09:25:52.349Z,185.75
2023-05-01T09:26:52.416Z,187.63
2023-05-01T09:27:52.489Z,189.82
2023-05-01T09:28:52.545Z,192.24
2023-05-01T09:29:52.584Z,195.06
2023-05-01T09:30:52.661Z,196.45
2023-05-01T09:31:52.892Z,198.14
2023-05-01T09:32:52.890Z,201.00
2023-05-01T09:33:52.807Z,203.95
2023-05-01T09:34:52.878Z,204.42
2023-05-01T09:35:52.930Z,207.13
2023-05-01T09:36:52.960Z,207.49
2023-05-01T09:37:53.048Z,209.92
2023-05-01T09:38:53.068Z,212.47
2023-05-01T09:39:53.126Z,215.45
2023-05-01T09:40:53.188Z,214.64
2023-05-01T09:41:53.233Z,215.66
2023-05-01T09:42:53.305Z,217.74
2023-05-01T09:43:53.345Z,218.50
2023-05-01T09:44:53.395Z,221.34
2023-05-01T09:45:53.454Z,221.48
2023-05-01T09:46:53.378Z,221.88
2023-05-01T09:47:53.420Z,223.06
2023-05-01T09:48:53.339Z,225.28
2023-05-01T09:49:53.327Z,228.00
2023-05-01T09:50:53.320Z,228.42
2023-05-01T09:51:53.325Z,230.53
2023-05-01T09:52:53.314Z,231.39
2023-05-01T09:53:53.318Z,232.19
2023-05-01T09:54:53.289Z,231.71
2023-05-01T09:55:53.287Z,233.05
2023-05-01T09:56:53.342Z,235.31
2023-05-01T09:57:53.399Z,235.53
2023-05-01T09:58:53.449Z,237.76
2023-05-01T09:59:53.466Z,237.04
2023-05-01T10:00:53.585Z,238.33
2023-05-01T10:01:53.645Z,238.46
2023-05-01T10:02:53.764Z,237.72
2023-05-01T10:03:53.816Z,240.00
2023-05-01T10:04:53.661Z,240.98
2023-05-01T10:05:53.734Z,240.49
2023-05-01T10:06:53.805Z,241.70
2023-05-01T10:07:53.860Z,241.90
2023-05-01T10:08:53.820Z,242.71
2023-05-01T10:09:53.929Z,243.00
2023-05-01T10:10:53.921Z,245.43
2023-05-01T10:11:53.935Z,244.17
2023-05-01T10:12:53.996Z,245.14
2023-05-01T10:13:54.037Z,245.88
2023-05-01T10:14:54.068Z,245.93
2023-05-01T10:15:54.105Z,245.90
2023-05-01T10:16:54.210Z,247.04
2023-05-01T10:17:54.570Z,247.94
2023-05-01T10:18:54.203Z,247.73
2023-05-01T10:19:54.493Z,247.29
2023-05-01T10:20:54.264Z,247.32
2023-05-01T10:21:54.304Z,248.34
2023-05-01T10:22:54.337Z,248.62
2023-05-01T10:23:54.367Z,249.39
2023-05-01T10:24:54.417Z,247.55
2023-05-01T10:25:54.436Z,249.15
2023-05-01T10:26:54.468Z,249.69
2023-05-01T10:27:54.501Z,249.58
2023-05-01T10:28:54.531Z,248.94
2023-05-01T10:29:54.838Z,248.93
2023-05-01T10:30:54.640Z,249.14
2023-05-01T10:31:54.730Z,249.82
2023-05-01T10:32:54.666Z,248.61
2023-05-01T10:33:54.640Z,249.50
2023-05-01T10:34:54.924Z,248.88
2023-05-01T10:35:54.742Z,249.06
2023-05-01T10:36:54.714Z,249.90
2023-05-01T10:37:54.753Z,247.56
2023-05-01T10:38:54.770Z,248.95
2023-05-01T10:39:54.796Z,248.77
2023-05-01T10:40:54.822Z,248.31
2023-05-01T10:41:54.848Z,250.00
2023-05-01T10:42:54.942Z,249.04
2023-05-01T10:43:54.896Z,248.28
2023-05-01T10:44:55.111Z,247.78
2023-05-01T10:45:54.987Z,248.74
2023-05-01T10:46:55.129Z,248.91
2023-05-01T10:47:55.025Z,248.87
2023-05-01T10:48:55.023Z,248.44
2023-05-01T10:49:55.062Z,248.94
2023-05-01T10:50:55.104Z,249.69
2023-05-01T10:51:55.127Z,247.72
2023-05-01T10:52:55.154Z,248.93
2023-05-01T10:53:55.159Z,249.09
2023-05-01T10:54:55.415Z,248.36
2023-05-01T10:55:55.220Z,248.17
2023-05-01T10:56:55.283Z,248.33
2023-05-01T10:57:55.294Z,248.27
2023-05-01T10:58:55.310Z,248.87
2023-05-01T10:59:55.332Z,250.12
2023-05-01T11:00:55.350Z,248.74
2023-05-01T11:01:55.419Z,249.48
2023-05-01T11:02:55.448Z,247.80
2023-05-01T11:03:55.425Z,248.11
2023-05-01T11:04:55.626Z,249.51
2023-05-01T11:05:55.544Z,248.86
2023-05-01T11:06:55.528Z,248.00
2023-05-01T11:07:55.523Z,248.50
2023-05-01T11:08:55.548Z,248.54
2023-05-01T11:09:55.889Z,249.39
2023-05-01T11:10:55.583Z,248.90
2023-05-01T11:11:55.592Z,248.93
2023-05-01T11:12:55.622Z,248.75
2023-05-01T11:13:55.642Z,248.82
2023-05-01T11:14:56.007Z,249.28
2023-05-01T11:15:55.682Z,248.71
2023-05-01T11:16:55.749Z,248.36
2023-05-01T11:17:55.730Z,248.50
2023-05-01T11:18:55.712Z,248.58
2023-05-01T11:19:55.703Z,249.96
2023-05-01T11:20:55.724Z,249.27
2023-05-01T11:21:55.746Z,248.13
2023-05-01T11:22:55.752Z,249.38
2023-05-01T11:23:55.764Z,248.76
2023-05-01T11:24:55.978Z,249.17
2023-05-01T11:25:55.774Z,248.55
2023-05-01T11:26:55.784Z,250.00
2023-05-01T11:27:55.812Z,248.96
2023-05-01T11:28:55.832Z,248.15
2023-05-01T11:29:55.848Z,247.98
2023-05-01T11:30:55.854Z,249.20
2023-05-01T11:31:55.924Z,248.25
2023-05-01T11:32:55.908Z,248.19
2023-05-01T11:33:55.890Z,248.18
2023-05-01T11:34:56.142Z,247.20
2023-05-01T11:35:55.896Z,248.86
2023-05-01T11:36:55.887Z,248.45
2023-05-01T11:37:55.935Z,247.67
2023-05-01T11:38:55.898Z,249.81
2023-05-01T11:39:55.910Z,248.92
2023-05-01T11:40:55.911Z,248.99
2023-05-01T11:41:55.933Z,249.04
2023-05-01T11:42:55.870Z,248.64
2023-05-01T11:43:55.864Z,249.14
2023-05-01T11:44:55.966Z,248.72
2023-05-01T11:45:55.893Z,248.92
2023-05-01T11:46:55.811Z,249.73
2023-05-01T11:47:55.841Z,247.71
2023-05-01T11:48:55.785Z,248.37
2023-05-01T11:49:55.795Z,247.08
2023-05-01T11:50:55.741Z,248.14
2023-05-01T11:51:55.797Z,247.37
2023-05-01T11:52:55.805Z,248.51
2023-05-01T11:53:55.762Z,247.00
2023-05-01T11:54:55.714Z,248.51
2023-05-01T11:55:55.705Z,247.80
2023-05-01T11:56:55.670Z,248.56
2023-05-01T11:57:55.677Z,248.65
2023-05-01T11:58:55.649Z,248.71
2023-05-01T11:59:55.641Z,248.63
2023-05-01T12:00:55.653Z,248.78
2023-05-01T12:01:55.645Z,247.18
2023-05-01T12:02:55.675Z,247.32
2023-05-01T12:03:55.680Z,248.29
2023-05-01T12:04:55.772Z,247.25
2023-05-01T12:05:55.570Z,247.38
2023-05-01T12:06:55.552Z,247.74
2023-05-01T12:07:55.537Z,247.53
2023-05-01T12:08:55.511Z,248.66
2023-05-01T12:09:55.512Z,249.31
2023-05-01T12:10:55.486Z,248.82
2023-05-01T12:11:55.463Z,247.82
2023-05-01T12:12:55.443Z,247.80
2023-05-01T12:13:55.443Z,249.24
2023-05-01T12:14:55.539Z,248.09
2023-05-01T12:15:55.454Z,247.99
2023-05-01T12:16:55.437Z,248.45
2023-05-01T12:17:55.414Z,248.55
2023-05-01T12:18:55.337Z,248.66
2023-05-01T12:19:55.338Z,248.82
2023-05-01T12:20:55.318Z,248.27
2023-05-01T12:21:55.355Z,249.13
2023-05-01T12:22:55.311Z,248.28
2023-05-01T12:23:55.285Z,248.33
2023-05-01T12:24:55.279Z,249.60
2023-05-01T12:25:55.247Z,248.11
2023-05-01T12:26:55.220Z,248.99
2023-05-01T12:27:55.237Z,247.48
2023-05-01T12:28:55.203Z,248.30
2023-05-01T12:29:55.183Z,249.39
2023-05-01T12:30:55.167Z,248.71
2023-05-01T12:31:55.207Z,248.77
2023-05-01T12:32:55.229Z,249.00
2023-05-01T12:33:55.127Z,247.92
2023-05-01T12:34:55.116Z,248.48
2023-05-01T12:35:55.069Z,248.81
2023-05-01T12:36:55.149Z,248.22
2023-05-01T12:37:55.066Z,248.26
2023-05-01T12:38:55.018Z,248.95
2023-05-01T12:39:54.991Z,248.44
2023-05-01T12:40:54.968Z,248.96
2023-05-01T12:41:54.973Z,248.27